createdAt,value
2023-03-15T00:01:46.736Z,5.54
2023-03-15T00:04:14.121Z,5.47
2023-03-15T00:06:40.966Z,5.37
2023-03-15T00:09:07.698Z,5.14
2023-03-15T00:11:34.299Z,4.99
2023-03-15T00:14:02.396Z,4.46
2023-03-15T00:16:29.487Z,5.25
2023-03-15T00:18:56.494Z,4.81
2023-03-15T00:21:23.617Z,4.36
2023-03-15T00:23:50.455Z,3.93
2023-03-15T00:26:17.222Z,3.82
2023-03-15T00:28:43.786Z,3.52
2023-03-15T00:31:19.093Z,3.23
2023-03-15T00:33:45.794Z,2.92
2023-03-15T00:36:13.012Z,2.74
2023-03-15T00:38:41.183Z,3.04
2023-03-15T00:41:13.631Z,3.07
2023-03-15T00:43:40.491Z,3.28
2023-03-15T00:46:07.719Z,3.18
2023-03-15T00:48:35.489Z,3.61
2023-03-15T00:51:07.002Z,3.84
2023-03-15T00:53:34.585Z,4.35
2023-03-15T00:56:10.083Z,4.10
2023-03-15T00:58:37.265Z,4.10
2023-03-15T01:01:15.881Z,4.30
2023-03-15T01:03:43.742Z,4.37
2023-03-15T01:06:19.605Z,4.77
2023-03-15T01:08:46.569Z,4.92
2023-03-15T01:11:18.882Z,5.00
2023-03-15T01:13:45.629Z,5.43
2023-03-15T01:16:13.854Z,5.75
2023-03-15T01:18:44.457Z,5.71
2023-03-15T01:21:13.547Z,5.82
2023-03-15T01:23:40.521Z,5.81
2023-03-15T01:26:09.964Z,6.29
2023-03-15T01:28:36.547Z,6.50
2023-03-15T01:31:03.591Z,6.36
2023-03-15T01:33:30.291Z,6.18
2023-03-15T01:36:15.211Z,6.59
2023-03-15T01:38:41.777Z,6.58
2023-03-15T01:41:08.387Z,6.77
2023-03-15T01:43:35.208Z,6.88
2023-03-15T01:46:03.388Z,6.24
2023-03-15T01:48:40.072Z,5.53
2023-03-15T01:51:15.717Z,5.54
2023-03-15T01:53:43.937Z,5.04
2023-03-15T01:56:10.682Z,4.91
2023-03-15T01:58:38.450Z,5.55
2023-03-15T02:01:05.161Z,4.80
2023-03-15T02:03:35.879Z,4.97
2023-03-15T02:06:05.649Z,4.59
2023-03-15T02:08:34.237Z,4.54
2023-03-15T02:11:03.145Z,4.80
2023-03-15T02:13:30.435Z,4.38
2023-03-15T02:15:57.143Z,4.91
2023-03-15T02:18:23.905Z,4.54
2023-03-15T02:20:53.598Z,3.94
2023-03-15T02:23:22.251Z,4.60
2023-03-15T02:26:16.935Z,4.86
2023-03-15T02:28:43.860Z,5.27
2023-03-15T02:31:11.038Z,4.91
2023-03-15T02:33:44.267Z,4.84
2023-03-15T02:36:16.984Z,4.97
2023-03-15T02:38:43.858Z,5.10
2023-03-15T02:41:12.006Z,5.19
2023-03-15T02:43:39.696Z,5.14
2023-03-15T02:46:06.552Z,5.01
2023-03-15T02:48:34.369Z,4.79
2023-03-15T02:51:02.119Z,5.00
2023-03-15T02:53:31.962Z,4.72
2023-03-15T02:55:58.547Z,4.47
2023-03-15T02:58:25.674Z,4.10
2023-03-15T03:00:53.835Z,4.50
2023-03-15T03:03:20.498Z,5.04
2023-03-15T03:05:47.293Z,4.76
2023-03-15T03:08:16.378Z,4.60
2023-03-15T03:10:46.344Z,4.82
2023-03-15T03:13:12.998Z,3.86
2023-03-15T03:15:39.475Z,4.52
2023-03-15T03:18:06.061Z,4.16
2023-03-15T03:20:33.476Z,4.21
2023-03-15T03:23:06.124Z,4.36
2023-03-15T03:25:33.622Z,4.31
2023-03-15T03:28:03.899Z,4.97
2023-03-15T03:30:31.169Z,4.54
2023-03-15T03:32:58.117Z,3.95
2023-03-15T03:35:24.710Z,4.77
2023-03-15T03:37:54.033Z,4.30
2023-03-15T03:40:20.529Z,4.59
2023-03-15T03:42:47.064Z,5.15
2023-03-15T03:45:13.596Z,4.77
2023-03-15T03:47:40.308Z,5.04
2023-03-15T03:50:07.385Z,4.68
2023-03-15T03:52:33.906Z,4.79
2023-03-15T03:55:00.559Z,4.82
2023-03-15T03:57:27.137Z,4.94
2023-03-15T03:59:53.765Z,3.69
2023-03-15T04:02:20.308Z,4.91
2023-03-15T04:04:54.823Z,4.44
2023-03-15T04:07:21.394Z,4.69
2023-03-15T04:09:47.999Z,5.07
2023-03-15T04:12:14.723Z,4.87
2023-03-15T04:14:41.434Z,5.02
2023-03-15T04:17:08.781Z,4.99
2023-03-15T04:19:35.298Z,5.14
2023-03-15T04:22:06.690Z,5.28
2023-03-15T04:24:34.747Z,4.91
2023-03-15T04:27:02.368Z,5.17
2023-03-15T04:29:29.073Z,5.00
2023-03-15T04:32:01.465Z,5.37
2023-03-15T04:34:31.443Z,5.46
2023-03-15T04:36:58.082Z,5.83
2023-03-15T04:39:25.011Z,5.37
2023-03-15T04:41:51.549Z,5.30
2023-03-15T04:44:18.143Z,5.10
2023-03-15T04:46:44.985Z,5.19
2023-03-15T04:49:12.027Z,5.07
2023-03-15T04:51:38.614Z,5.83
2023-03-15T04:54:05.211Z,5.19
2023-03-15T04:56:31.821Z,5.38
2023-03-15T04:58:58.577Z,4.94
2023-03-15T05:01:29.656Z,5.55
2023-03-15T05:03:56.914Z,5.72
2023-03-15T05:06:23.948Z,5.28
2023-03-15T05:08:51.121Z,5.23
2023-03-15T05:11:17.815Z,5.27
2023-03-15T05:13:44.282Z,4.30
2023-03-15T05:16:10.883Z,5.02
2023-03-15T05:18:37.739Z,5.66
2023-03-15T05:21:06.097Z,5.54
2023-03-15T05:23:34.050Z,5.38
2023-03-15T05:26:00.770Z,5.43
2023-03-15T05:28:28.136Z,5.00
2023-03-15T05:30:54.945Z,5.49
2023-03-15T05:33:21.738Z,4.95
2023-03-15T05:35:48.907Z,5.23
2023-03-15T05:38:15.905Z,5.08
2023-03-15T05:40:46.550Z,5.20
2023-03-15T05:43:13.199Z,5.21
2023-03-15T05:45:40.804Z,5.53
2023-03-15T05:48:07.382Z,5.60
2023-03-15T05:50:34.094Z,5.86
2023-03-15T05:53:00.838Z,5.63
2023-03-15T05:55:27.444Z,5.13
2023-03-15T05:57:54.057Z,5.75
2023-03-15T06:00:20.974Z,5.03
2023-03-15T06:02:47.682Z,5.21
2023-03-15T06:05:14.332Z,5.20
2023-03-15T06:07:41.204Z,4.71
2023-03-15T06:10:08.266Z,5.41
2023-03-15T06:12:35.045Z,5.60
2023-03-15T06:15:01.571Z,5.72
2023-03-15T06:17:28.352Z,6.16
2023-03-15T06:19:54.894Z,6.08
2023-03-15T06:22:21.443Z,5.89
2023-03-15T06:24:48.047Z,6.47
2023-03-15T06:27:14.625Z,6.40
2023-03-15T06:29:41.214Z,5.58
2023-03-15T06:32:08.163Z,5.64
2023-03-15T06:34:34.838Z,6.24
2023-03-15T06:37:01.337Z,6.42
2023-03-15T06:39:27.825Z,6.35
2023-03-15T06:41:57.327Z,6.18
2023-03-15T06:44:24.349Z,5.98
2023-03-15T06:46:50.894Z,6.25
2023-03-15T06:49:17.373Z,6.87
2023-03-15T06:51:45.388Z,7.38
2023-03-15T06:54:12.211Z,7.23
2023-03-15T06:56:38.913Z,7.45
2023-03-15T06:59:05.801Z,6.51
2023-03-15T07:01:32.557Z,5.69
2023-03-15T07:03:59.169Z,6.33
2023-03-15T07:06:28.227Z,6.46
2023-03-15T07:08:54.912Z,6.90
2023-03-15T07:11:21.468Z,7.27
2023-03-15T07:13:48.400Z,6.94
2023-03-15T07:16:15.039Z,6.62
2023-03-15T07:18:41.616Z,6.84
2023-03-15T07:21:08.337Z,6.97
2023-03-15T07:23:34.893Z,6.67
2023-03-15T07:26:01.725Z,7.59
2023-03-15T07:28:28.456Z,7.55
2023-03-15T07:31:00.324Z,6.83
2023-03-15T07:33:28.617Z,6.46
2023-03-15T07:35:55.847Z,6.91
2023-03-15T07:38:24.017Z,7.48
2023-03-15T07:40:50.645Z,7.51
2023-03-15T07:43:17.506Z,7.68
2023-03-15T07:45:44.165Z,6.82
2023-03-15T07:48:11.275Z,7.34
2023-03-15T07:50:37.983Z,6.47
2023-03-15T07:53:05.350Z,6.71
2023-03-15T07:55:35.747Z,7.30
2023-03-15T07:58:03.103Z,7.54
2023-03-15T08:00:29.753Z,6.43
2023-03-15T08:02:56.409Z,6.05
2023-03-15T08:05:23.066Z,5.83
2023-03-15T08:07:50.532Z,6.26
2023-03-15T08:10:18.248Z,6.00
2023-03-15T08:12:44.881Z,6.53
2023-03-15T08:15:15.143Z,6.59
2023-03-15T08:17:42.262Z,6.86
2023-03-15T08:20:11.719Z,7.25
2023-03-15T08:22:39.005Z,7.83
2023-03-15T08:25:06.243Z,7.85
2023-03-15T08:27:32.818Z,8.42
2023-03-15T08:29:59.437Z,8.48
2023-03-15T08:32:26.130Z,8.08
2023-03-15T08:34:53.277Z,8.93
2023-03-15T08:37:20.118Z,8.87
2023-03-15T08:39:47.079Z,9.43
2023-03-15T08:42:13.828Z,9.74
2023-03-15T08:44:40.571Z,9.13
2023-03-15T08:47:07.347Z,8.89
2023-03-15T08:49:34.174Z,8.87
2023-03-15T08:52:00.820Z,10.03
2023-03-15T08:54:27.594Z,9.93
2023-03-15T08:56:54.223Z,9.87
2023-03-15T08:59:31.285Z,8.78
2023-03-15T09:02:00.464Z,7.76
2023-03-15T09:04:27.115Z,8.59
2023-03-15T09:06:54.331Z,9.68
2023-03-15T09:09:21.246Z,10.45
2023-03-15T09:11:47.869Z,11.91
2023-03-15T09:14:14.691Z,12.40
2023-03-15T09:16:41.460Z,12.93
2023-03-15T09:19:08.383Z,9.47
2023-03-15T09:21:34.987Z,9.11
2023-03-15T09:24:01.801Z,10.00
2023-03-15T09:26:28.367Z,10.60
2023-03-15T09:28:55.275Z,9.51
2023-03-15T09:31:21.818Z,9.31
2023-03-15T09:33:49.666Z,10.68
2023-03-15T09:36:16.190Z,12.46
2023-03-15T09:38:43.963Z,12.92
2023-03-15T09:41:21.066Z,12.96
2023-03-15T09:44:09.844Z,13.17
2023-03-15T09:46:42.574Z,14.37
2023-03-15T09:49:10.195Z,12.98
2023-03-15T09:51:51.018Z,13.23
2023-03-15T09:54:32.290Z,15.29
2023-03-15T09:57:04.310Z,18.54
2023-03-15T09:59:44.305Z,14.97
2023-03-15T10:02:14.662Z,15.36
2023-03-15T10:04:43.657Z,20.41
2023-03-15T10:07:14.447Z,27.61
2023-03-15T10:09:44.322Z,28.48
2023-03-15T10:12:14.081Z,26.67
2023-03-15T10:15:08.884Z,27.75
2023-03-15T10:17:58.602Z,22.03
2023-03-15T10:20:27.859Z,15.79
2023-03-15T10:23:05.931Z,16.74
2023-03-15T10:25:33.307Z,21.28
2023-03-15T10:28:05.030Z,27.74
2023-03-15T10:30:34.164Z,29.31
2023-03-15T10:33:20.295Z,35.03
2023-03-15T10:35:47.250Z,36.89
2023-03-15T10:38:18.344Z,34.47
2023-03-15T10:40:56.516Z,39.26
2023-03-15T10:43:24.416Z,39.65
2023-03-15T10:46:00.557Z,27.45
2023-03-15T10:48:29.433Z,22.97
2023-03-15T10:50:58.402Z,17.82
2023-03-15T10:53:25.854Z,17.33
2023-03-15T10:56:05.565Z,19.83
2023-03-15T10:59:12.441Z,23.10
2023-03-15T11:01:40.235Z,24.18
2023-03-15T11:04:07.829Z,21.86
2023-03-15T11:06:42.399Z,24.19
2023-03-15T11:09:15.298Z,27.37
2023-03-15T11:11:53.462Z,30.67
2023-03-15T11:14:20.686Z,32.38
2023-03-15T11:16:51.095Z,27.00
2023-03-15T11:19:23.877Z,24.61
2023-03-15T11:21:51.620Z,24.80
2023-03-15T11:24:23.843Z,26.87
2023-03-15T11:26:53.611Z,31.79
2023-03-15T11:29:26.536Z,36.13
2023-03-15T11:31:54.629Z,37.75
2023-03-15T11:34:33.360Z,37.72
2023-03-15T11:37:09.103Z,29.66
2023-03-15T11:40:08.877Z,25.30
2023-03-15T11:42:44.830Z,29.10
2023-03-15T11:45:28.685Z,30.71
2023-03-15T11:48:03.851Z,30.02
2023-03-15T11:50:30.601Z,30.95
2023-03-15T11:53:02.907Z,35.47
2023-03-15T11:55:29.895Z,37.77
2023-03-15T11:57:58.001Z,37.75
2023-03-15T12:00:26.791Z,38.41
2023-03-15T12:02:56.427Z,37.03
2023-03-15T12:05:47.866Z,39.71
2023-03-15T12:08:18.523Z,37.79
2023-03-15T12:10:47.290Z,33.47
2023-03-15T12:13:20.912Z,37.18
2023-03-15T12:15:48.701Z,37.65
2023-03-15T12:18:19.188Z,35.75
2023-03-15T12:20:52.420Z,33.77
2023-03-15T12:23:18.930Z,29.64
2023-03-15T12:26:25.051Z,24.17
2023-03-15T12:29:03.944Z,24.67
2023-03-15T12:31:50.697Z,21.51
2023-03-15T12:34:25.680Z,18.19
2023-03-15T12:36:56.084Z,16.39
2023-03-15T12:39:41.094Z,12.92
2023-03-15T12:42:13.298Z,13.11
2023-03-15T12:44:42.728Z,13.36
2023-03-15T12:47:11.702Z,13.36
2023-03-15T12:49:46.155Z,13.69
2023-03-15T12:52:14.010Z,13.40
2023-03-15T12:54:50.112Z,13.62
2023-03-15T12:57:30.750Z,11.76
2023-03-15T13:00:01.036Z,12.44
2023-03-15T13:02:43.218Z,12.17
2023-03-15T13:05:13.784Z,12.55
2023-03-15T13:07:52.741Z,11.84
2023-03-15T13:10:19.630Z,12.38
2023-03-15T13:12:53.511Z,12.69
2023-03-15T13:15:33.181Z,12.33
2023-03-15T13:18:18.054Z,12.66
2023-03-15T13:20:55.024Z,13.23
2023-03-15T13:23:31.087Z,13.60
2023-03-15T13:26:08.997Z,14.42
2023-03-15T13:28:49.393Z,15.23
2023-03-15T13:31:19.022Z,14.87
2023-03-15T13:33:50.362Z,13.78
2023-03-15T13:36:19.423Z,15.10
2023-03-15T13:38:49.631Z,15.65
2023-03-15T13:41:30.940Z,16.01
2023-03-15T13:44:00.455Z,16.06
2023-03-15T13:46:30.479Z,14.25
2023-03-15T13:48:57.413Z,13.55
2023-03-15T13:51:35.186Z,13.71
2023-03-15T13:54:05.756Z,14.02
2023-03-15T13:56:49.390Z,13.28
2023-03-15T13:59:17.549Z,14.20
2023-03-15T14:01:44.539Z,14.25
2023-03-15T14:04:18.410Z,13.83
2023-03-15T14:06:48.405Z,14.14
2023-03-15T14:09:21.596Z,14.30
2023-03-15T14:12:18.981Z,13.81
2023-03-15T14:14:53.398Z,14.07
2023-03-15T14:17:29.222Z,13.58
2023-03-15T14:20:14.843Z,12.91
2023-03-15T14:22:44.107Z,12.21
2023-03-15T14:25:21.655Z,11.99
2023-03-15T14:27:48.260Z,12.63
2023-03-15T14:30:22.945Z,12.49
2023-03-15T14:32:55.572Z,12.13
2023-03-15T14:35:25.360Z,13.14
2023-03-15T14:38:07.758Z,12.81
2023-03-15T14:40:38.648Z,11.90
2023-03-15T14:43:08.605Z,11.95
2023-03-15T14:45:38.908Z,12.43
2023-03-15T14:48:08.444Z,13.02
2023-03-15T14:50:40.810Z,12.11
2023-03-15T14:53:09.189Z,12.34
2023-03-15T14:55:37.091Z,12.75
2023-03-15T14:58:10.064Z,12.39
2023-03-15T15:00:36.765Z,13.07
2023-03-15T15:03:09.224Z,13.49
2023-03-15T15:05:36.509Z,13.05
2023-03-15T15:08:06.896Z,12.26
2023-03-15T15:10:34.793Z,13.39
2023-03-15T15:13:06.500Z,13.97
2023-03-15T15:15:40.799Z,13.84
2023-03-15T15:18:14.410Z,14.51
2023-03-15T15:20:41.999Z,14.60
2023-03-15T15:23:17.401Z,14.85
2023-03-15T15:25:46.523Z,13.27
2023-03-15T15:28:27.359Z,12.26
2023-03-15T15:31:00.788Z,12.68
2023-03-15T15:33:27.849Z,12.52
2023-03-15T15:35:56.084Z,12.03
2023-03-15T15:38:26.808Z,12.04
2023-03-15T15:40:53.689Z,11.70
2023-03-15T15:43:21.291Z,11.99
2023-03-15T15:45:47.875Z,12.00
2023-03-15T15:48:14.548Z,12.59
2023-03-15T15:50:41.098Z,12.52
2023-03-15T15:53:09.887Z,12.74
2023-03-15T15:55:36.812Z,12.29
2023-03-15T15:58:05.281Z,12.58
2023-03-15T16:00:32.105Z,12.69
2023-03-15T16:02:59.452Z,12.68
2023-03-15T16:05:27.775Z,12.62
2023-03-15T16:07:55.517Z,11.66
2023-03-15T16:10:25.511Z,11.31
2023-03-15T16:12:53.690Z,11.45
2023-03-15T16:15:20.612Z,12.09
2023-03-15T16:17:47.542Z,12.42
2023-03-15T16:20:15.739Z,12.44
2023-03-15T16:22:45.547Z,12.17
2023-03-15T16:25:18.005Z,11.66
2023-03-15T16:27:46.714Z,12.18
2023-03-15T16:30:24.688Z,12.52
2023-03-15T16:32:57.169Z,12.15
2023-03-15T16:35:30.121Z,12.36
2023-03-15T16:37:58.240Z,12.13
2023-03-15T16:40:28.576Z,12.25
2023-03-15T16:42:55.712Z,12.17
2023-03-15T16:45:23.263Z,12.38
2023-03-15T16:47:50.073Z,12.54
2023-03-15T16:50:17.222Z,12.48
2023-03-15T16:52:46.227Z,12.52
2023-03-15T16:55:14.692Z,12.33
2023-03-15T16:57:41.429Z,12.15
2023-03-15T17:00:17.386Z,12.37
2023-03-15T17:02:49.152Z,12.10
2023-03-15T17:05:18.958Z,11.94
2023-03-15T17:07:47.768Z,11.00
2023-03-15T17:10:23.090Z,11.28
2023-03-15T17:12:52.359Z,11.49
2023-03-15T17:15:25.422Z,11.37
2023-03-15T17:17:53.483Z,11.26
2023-03-15T17:20:28.300Z,11.30
2023-03-15T17:23:04.812Z,11.09
2023-03-15T17:25:32.279Z,10.94
2023-03-15T17:28:00.207Z,11.02
2023-03-15T17:30:32.045Z,10.67
2023-03-15T17:32:58.771Z,10.95
2023-03-15T17:35:30.027Z,10.94
2023-03-15T17:37:56.752Z,10.75
2023-03-15T17:40:34.751Z,10.78
2023-03-15T17:43:03.558Z,10.68
2023-03-15T17:45:33.118Z,10.48
2023-03-15T17:48:01.267Z,10.12
2023-03-15T17:50:30.538Z,10.45
2023-03-15T17:52:59.345Z,10.19
2023-03-15T17:55:27.435Z,10.16
2023-03-15T17:57:55.578Z,9.70
2023-03-15T18:00:23.907Z,9.81
2023-03-15T18:02:55.613Z,9.87
2023-03-15T18:05:25.206Z,9.75
2023-03-15T18:07:58.666Z,9.69
2023-03-15T18:10:30.954Z,9.59
2023-03-15T18:12:57.526Z,9.55
2023-03-15T18:15:24.095Z,9.22
2023-03-15T18:17:50.950Z,9.34
2023-03-15T18:20:19.194Z,9.21
2023-03-15T18:22:45.831Z,9.24
2023-03-15T18:25:24.198Z,9.22
2023-03-15T18:27:51.440Z,8.83
2023-03-15T18:30:19.988Z,9.00
2023-03-15T18:32:47.050Z,8.65
2023-03-15T18:35:19.325Z,8.83
2023-03-15T18:37:46.597Z,9.02
2023-03-15T18:40:15.442Z,8.92
2023-03-15T18:42:42.556Z,8.83
2023-03-15T18:45:21.275Z,8.96
2023-03-15T18:47:48.983Z,9.03
2023-03-15T18:50:16.657Z,8.77
2023-03-15T18:52:43.354Z,9.14
2023-03-15T18:55:12.217Z,8.94
2023-03-15T18:57:41.564Z,8.77
2023-03-15T19:00:13.685Z,8.83
2023-03-15T19:02:45.442Z,8.73
2023-03-15T19:05:13.868Z,8.60
2023-03-15T19:07:41.346Z,8.41
2023-03-15T19:10:11.572Z,8.56
2023-03-15T19:12:39.807Z,8.15
2023-03-15T19:15:10.581Z,8.36
2023-03-15T19:17:40.615Z,8.44
2023-03-15T19:20:08.966Z,8.34
2023-03-15T19:22:35.594Z,8.17
2023-03-15T19:25:02.427Z,7.98
2023-03-15T19:27:29.080Z,7.99
2023-03-15T19:29:55.685Z,7.88
2023-03-15T19:32:22.581Z,7.92
2023-03-15T19:34:49.268Z,8.03
2023-03-15T19:37:16.024Z,7.96
2023-03-15T19:39:42.604Z,8.07
2023-03-15T19:42:09.148Z,7.80
2023-03-15T19:44:36.135Z,7.83
2023-03-15T19:47:02.824Z,7.27
2023-03-15T19:49:29.312Z,7.33
2023-03-15T19:51:56.028Z,7.11
2023-03-15T19:54:22.704Z,7.28
2023-03-15T19:56:49.724Z,7.40
2023-03-15T19:59:16.242Z,7.63
2023-03-15T20:01:43.010Z,7.51
2023-03-15T20:04:09.602Z,7.05
2023-03-15T20:06:36.321Z,7.03
2023-03-15T20:09:03.889Z,5.97
2023-03-15T20:11:30.517Z,6.39
2023-03-15T20:13:57.188Z,6.90
2023-03-15T20:16:23.720Z,6.34
2023-03-15T20:18:55.240Z,6.88
2023-03-15T20:21:21.916Z,6.54
2023-03-15T20:23:49.343Z,7.10
2023-03-15T20:26:17.650Z,6.15
2023-03-15T20:28:45.120Z,6.96
2023-03-15T20:31:14.380Z,6.80
2023-03-15T20:33:41.814Z,7.09
2023-03-15T20:36:08.598Z,7.14
2023-03-15T20:38:37.162Z,7.32
2023-03-15T20:41:05.096Z,6.84
2023-03-15T20:43:32.997Z,6.98
2023-03-15T20:46:01.142Z,7.04
2023-03-15T20:48:29.028Z,7.30
2023-03-15T20:50:57.930Z,6.75
2023-03-15T20:53:25.173Z,7.12
2023-03-15T20:55:51.947Z,7.04
2023-03-15T20:58:18.635Z,6.63
2023-03-15T21:00:45.424Z,6.36
2023-03-15T21:03:13.627Z,6.46
2023-03-15T21:05:41.214Z,6.82
2023-03-15T21:08:08.469Z,6.54
2023-03-15T21:10:35.588Z,6.89
2023-03-15T21:13:09.513Z,6.40
2023-03-15T21:15:46.309Z,7.02
2023-03-15T21:18:17.226Z,6.53
2023-03-15T21:20:44.317Z,7.01
2023-03-15T21:23:11.517Z,6.30
2023-03-15T21:25:38.421Z,6.69
2023-03-15T21:28:05.324Z,7.11
2023-03-15T21:30:32.977Z,7.41
2023-03-15T21:33:00.013Z,7.40
2023-03-15T21:35:26.696Z,7.46
2023-03-15T21:37:53.536Z,6.47
2023-03-15T21:40:20.422Z,7.25
2023-03-15T21:42:47.857Z,7.15
2023-03-15T21:45:14.677Z,7.53
2023-03-15T21:47:41.517Z,7.36
2023-03-15T21:50:08.985Z,7.55
2023-03-15T21:52:35.510Z,6.89
2023-03-15T21:55:02.125Z,6.61
2023-03-15T21:57:29.013Z,6.52
2023-03-15T21:59:55.529Z,6.73
2023-03-15T22:02:22.101Z,6.78
2023-03-15T22:04:48.697Z,6.68
2023-03-15T22:07:15.282Z,6.57
2023-03-15T22:09:43.259Z,6.78
2023-03-15T22:12:10.345Z,6.74
2023-03-15T22:14:37.143Z,6.69
2023-03-15T22:17:04.706Z,6.88
2023-03-15T22:19:32.227Z,6.73
2023-03-15T22:21:58.871Z,6.54
2023-03-15T22:24:25.600Z,7.01
2023-03-15T22:26:53.180Z,6.98
2023-03-15T22:29:19.962Z,7.18
2023-03-15T22:31:46.731Z,7.03
2023-03-15T22:34:13.276Z,6.94
2023-03-15T22:36:39.777Z,7.04
2023-03-15T22:39:07.612Z,6.97
2023-03-15T22:41:34.997Z,6.36
2023-03-15T22:44:01.635Z,6.22
2023-03-15T22:46:28.512Z,6.46
2023-03-15T22:48:55.198Z,6.35
2023-03-15T22:51:21.920Z,6.19
2023-03-15T22:53:48.514Z,6.49
2023-03-15T22:56:15.560Z,6.57
2023-03-15T22:58:42.217Z,6.11
2023-03-15T23:01:09.996Z,6.47
2023-03-15T23:03:37.046Z,6.62
2023-03-15T23:06:03.779Z,6.89
2023-03-15T23:08:30.641Z,6.85
2023-03-15T23:10:58.611Z,6.46
2023-03-15T23:13:25.360Z,5.94
2023-03-15T23:15:51.910Z,6.42
2023-03-15T23:18:18.696Z,6.44
2023-03-15T23:20:45.470Z,6.70
2023-03-15T23:23:12.185Z,6.66
2023-03-15T23:25:39.493Z,6.85
2023-03-15T23:28:07.063Z,6.73
2023-03-15T23:30:35.663Z,7.09
2023-03-15T23:33:03.669Z,7.03
2023-03-15T23:35:31.749Z,7.00
2023-03-15T23:37:58.794Z,5.85
2023-03-15T23:40:26.033Z,6.19
2023-03-15T23:42:59.462Z,6.52
2023-03-15T23:45:29.429Z,6.60
2023-03-15T23:47:56.547Z,6.46
2023-03-15T23:50:27.147Z,6.64
2023-03-15T23:52:55.906Z,6.47
2023-03-15T23:55:23.840Z,5.91
2023-03-15T23:57:51.020Z,6.12
